Flight Track Log - Related Links

Times and Time Zones

All times are in EDT time to prevent confusion due to time zone crossing. See the AWE1477 flight status page for this flight to view local times or setup timezone preferences in your user account.

Time Position Orientation Groundspeed Altitude Reporting Facility
EDT Latitude Longitude Course Direction KTS MPH feet Rate Location/Type
Sat 03:04:29 PM 44.9333 -93.2333 90° East 179 206 3,200  Level Minneapolis TRACON
Sat 03:05:45 PM 44.9992 -93.2083 15° North 235 270 6,000 2,304 Climbing Minneapolis Center
Sat 03:06:00 PM 44.7828 -92.6850 113° Southeast  Level Estimated
Sat 03:06:47 PM 45.0233 -93.0986 73° East 290 334 8,500  Level Minneapolis Center
Sat 03:07:00 PM 44.6897 -92.5551 135° Southeast  Level FlightAware Approximate
Sat 03:07:49 PM 45.0150 -92.9839 96° East 316 364 11,500  Level Minneapolis Center
Sat 03:08:00 PM 44.6565 -92.3768 119° Southeast  Level Estimated
Sat 03:08:50 PM 44.9694 -92.9050 129° Southeast 322 371 13,800  Level Minneapolis Center
Sat 03:09:00 PM 44.6230 -92.1986 90° East  Level Estimated
Sat 03:09:52 PM 44.8903 -92.7697 130° Southeast 381 438 15,300  Level Minneapolis Center
Sat 03:10:54 PM 44.8142 -92.6403 130° Southeast 426 490 16,900 1,694 Climbing Minneapolis Center
Sat 03:11:56 PM 44.7178 -92.4806 130° Southeast 440 506 18,800 1,694 Climbing Minneapolis Center
Sat 03:12:58 PM 44.6333 -92.3378 130° Southeast 455 524 20,400 1,403 Climbing Minneapolis Center
Sat 03:14:00 PM 44.5461 -92.1881 129° Southeast 482 555 21,700 1,210 Climbing Minneapolis Center
Sat 03:15:02 PM 44.4631 -92.0297 126° Southeast 509 586 22,900 1,065 Climbing Minneapolis Center
Sat 03:16:04 PM 44.3517 -91.9028 141° Southeast 517 595 23,900 976 Climbing Minneapolis Center
Sat 03:17:05 PM 44.2425 -91.7678 138° Southeast 522 601 24,900 489 Climbing Minneapolis Center
Sat 03:18:19 PM 44.1781 -91.5750 115° Southeast 546 628 25,000 44 Climbing Minneapolis Center
Sat 03:19:21 PM 44.0869 -91.3061 115° Southeast 551 634 25,000  Level Minneapolis Center
Sat 03:20:23 PM 44.0261 -91.1261 115° Southeast 547 629 25,000  Level Minneapolis Center
Sat 03:21:25 PM 43.9747 -90.9750 115° Southeast 545 627 25,000  Level Minneapolis Center
Sat 03:22:27 PM 43.9206 -90.7356 107° East 546 628 25,000  Level Minneapolis Center
Sat 03:23:28 PM 43.8811 -90.5581 107° East 549 632 25,000  Level Minneapolis Center
Sat 03:24:30 PM 43.8225 -90.2897 107° East 547 629 25,000  Level Minneapolis Center
Sat 03:25:32 PM 43.7767 -90.0869 107° East 551 634 25,000  Level Minneapolis Center
Sat 03:26:46 PM 43.7242 -89.8536 107° East 547 629 25,000  Level Minneapolis Center
Sat 03:27:48 PM 43.6789 -89.6525 107° East 548 631 25,000  Level Minneapolis Center
Sat 03:28:50 PM 43.6328 -89.4561 108° East 541 623 25,000  Level Minneapolis Center
Sat 03:29:51 PM 43.5628 -89.2478 115° Southeast 523 602 25,000  Level Minneapolis Center
Sat 03:30:53 PM 43.5006 -89.1058 121° Southeast 519 597 25,000  Level Minneapolis Center
Sat 03:31:55 PM 43.4194 -88.9064 119° Southeast 516 594 25,000  Level Minneapolis Center
Sat 03:33:09 PM 43.3675 -88.7203 111° Southeast 530 610 25,000  Level Minneapolis Center
Sat 03:34:04 PM 43.3172 -88.4989 107° East 534 615 25,000  Level Chicago Center
Sat 03:35:05 PM 43.2747 -88.3081 107° East 533 613 25,000  Level Chicago Center
Sat 03:36:07 PM 43.2242 -88.0847 107° East 529 609 25,000  Level Chicago Center
Sat 03:37:09 PM 43.1800 -87.8939 108° East 526 605 25,000  Level Chicago Center
Sat 03:38:11 PM 43.1361 -87.7017 107° East 529 609 25,000  Level Chicago Center
Sat 03:39:13 PM 43.0908 -87.5097 108° East 530 610 25,000  Level Chicago Center
Sat 03:40:14 PM 43.0472 -87.3253 108° East 529 609 25,000  Level Chicago Center
Sat 03:41:16 PM 43.0022 -87.1333 108° East 532 612 25,000  Level Chicago Center
Sat 03:42:18 PM 42.9556 -86.9419 108° East 533 613 25,000  Level Chicago Center
Sat 03:43:20 PM 42.8986 -86.7100 108° East 539 620 25,000  Level Chicago Center
Sat 03:44:22 PM 42.8525 -86.5208 108° East 533 613 25,000  Level Chicago Center
Sat 03:45:23 PM 42.8058 -86.3347 109° East 528 608 25,000  Level Chicago Center
Sat 03:46:25 PM 42.7483 -86.1578 114° Southeast 523 602 25,000  Level Chicago Center
Sat 03:47:27 PM 42.6650 -86.0039 126° Southeast 513 590 25,000  Level Chicago Center
Sat 03:48:29 PM 42.5881 -85.7947 116° Southeast 524 603 25,000  Level Chicago Center
Sat 03:49:30 PM 42.5317 -85.6161 113° Southeast 522 601 25,000  Level Chicago Center
Sat 03:50:32 PM 42.4747 -85.4367 113° Southeast 524 603 25,000  Level Chicago Center
Sat 03:51:34 PM 42.4183 -85.2581 113° Southeast 521 600 25,000  Level Chicago Center
Sat 03:52:36 PM 42.3597 -85.0817 114° Southeast 517 595 25,000  Level Chicago Center
Sat 03:53:38 PM 42.3028 -84.9031 113° Southeast 520 598 25,000  Level Chicago Center
Sat 03:54:40 PM 42.2325 -84.6908 114° Southeast 520 598 25,000  Level Chicago Center
Sat 03:55:42 PM 42.1744 -84.5125 114° Southeast 520 598 25,000  Level Chicago Center
Sat 03:56:43 PM 42.1164 -84.3339 114° Southeast 522 601 25,000  Level Chicago Center
Sat 03:57:45 PM 42.0586 -84.1564 114° Southeast 522 601 25,000  Level Chicago Center
Sat 03:58:47 PM 41.9981 -83.9797 115° Southeast 522 601 25,000  Level Chicago Center
Sat 03:59:49 PM 41.9356 -83.8069 116° Southeast 517 595 25,000  Level Chicago Center
Sat 04:01:08 PM 41.8481 -83.5658 116° Southeast 514 592 25,000  Level Cleveland Center
Sat 04:02:08 PM 41.7900 -83.3906 114° Southeast 514 592 25,000  Level Cleveland Center
Sat 04:03:08 PM 41.7464 -83.2078 108° East 514 592 25,000  Level Cleveland Center
Sat 04:04:08 PM 41.7028 -83.0194 107° East 519 597 25,000  Level Cleveland Center
Sat 04:05:08 PM 41.6583 -82.8372 108° East 519 597 25,000  Level Cleveland Center
Sat 04:06:08 PM 41.6081 -82.6381 109° East 519 597 25,000  Level Cleveland Center
Sat 04:07:08 PM 41.5528 -82.4617 113° Southeast 519 597 25,000  Level Cleveland Center
Sat 04:08:08 PM 41.4992 -82.2825 112° Southeast 519 597 25,000  Level Cleveland Center
Sat 04:09:08 PM 41.4433 -82.1067 113° Southeast 519 597 25,000  Level Cleveland Center
Sat 04:10:08 PM 41.3911 -81.9475 114° Southeast 519 597 25,000  Level Cleveland Center
Sat 04:11:08 PM 41.3389 -81.7694 111° Southeast 519 597 25,000  Level Cleveland Center
Sat 04:12:08 PM 41.2822 -81.5917 113° Southeast 519 597 25,000  Level Cleveland Center
Sat 04:13:08 PM 41.2211 -81.4003 113° Southeast 519 597 25,000  Level Cleveland Center
Sat 04:14:08 PM 41.1597 -81.2286 115° Southeast 519 597 25,000  Level Cleveland Center
Sat 04:15:08 PM 41.1022 -81.0489 113° Southeast 519 597 25,000  Level Cleveland Center
Sat 04:16:08 PM 41.0486 -80.8750 112° Southeast 519 597 25,000  Level Cleveland Center
Sat 04:17:08 PM 40.9906 -80.7014 114° Southeast 519 597 25,000  Level Cleveland Center
Sat 04:18:08 PM 40.9364 -80.5364 113° Southeast 505 581 25,000  Level Cleveland Center
Sat 04:19:08 PM 40.8800 -80.3717 114° Southeast 500 575 25,000  Level Cleveland Center
Sat 04:20:08 PM 40.8275 -80.2264 115° Southeast 488 562 25,000  Level Cleveland Center
Sat 04:21:08 PM 40.7686 -80.0622 115° Southeast 482 555 25,000  Level Cleveland Center
Sat 04:22:08 PM 40.7072 -79.8847 114° Southeast 482 555 25,000  Level Cleveland Center
Sat 04:23:08 PM 40.6497 -79.7239 115° Southeast 482 555 25,000  Level Cleveland Center
Sat 04:24:08 PM 40.5900 -79.5606 116° Southeast 482 555 25,000  Level Cleveland Center
Sat 04:25:08 PM 40.5364 -79.3975 113° Southeast 487 560 25,000  Level Cleveland Center
Sat 04:26:08 PM 40.5097 -79.2422 103° East 481 554 25,000  Level Cleveland Center
Sat 04:27:08 PM 40.4822 -79.0625 101° East 481 554 25,000  Level Cleveland Center
Sat 04:28:08 PM 40.4544 -78.8667 100° East 493 567 25,000  Level Cleveland Center
Sat 04:29:08 PM 40.4267 -78.6931 102° East 493 567 25,000  Level Cleveland Center
Sat 04:30:08 PM 40.3986 -78.5139 102° East 493 567 25,000  Level Cleveland Center
Sat 04:31:55 PM 40.3508 -78.2014 101° East 480 552 25,000  Level New York Center
Sat 04:32:54 PM 40.3200 -78.0264 103° East 485 558 25,000  Level New York Center
Sat 04:33:55 PM 40.3100 -77.8483 94° East 485 558 25,000 -344 Level New York Center
Sat 04:34:56 PM 40.3100 -77.6714 90° East 485 558 24,300 -843 Descending New York Center
Sat 04:35:56 PM 40.3094 -77.4997 90° East 485 558 23,300 -1,017 Descending New York Center
Sat 04:36:54 PM 40.3069 -77.3225 91° East 480 552 22,300 -1,017 Descending New York Center
Sat 04:37:54 PM 40.2886 -77.1631 99° East 480 552 21,300 -650 Descending New York Center
Sat 04:38:54 PM 40.2628 -76.9783 100° East 493 567 21,000 -689 Descending New York Center
Sat 04:39:56 PM 40.2367 -76.8019 101° East 499 574 19,900 -1,750 Descending New York Center
Sat 04:40:54 PM 40.2119 -76.6286 101° East 486 559 17,500 -2,237 Descending New York Center
Sat 04:41:54 PM 40.1925 -76.4747 99° East 446 513 15,500 -1,884 Descending New York Center
Sat 04:42:55 PM 40.1683 -76.3258 102° East 403 464 13,700 -1,721 Descending New York Center
Sat 04:43:56 PM 40.1494 -76.1914 100° East 370 426 12,000 -1,664 Descending New York Center
Sat 04:44:54 PM 40.1303 -76.0622 101° East 365 420 10,400 -1,210 Descending New York Center
Sat 04:45:55 PM 40.1142 -75.9578 101° East 338 389 9,600 -1,041 Descending New York Center
Sat 04:46:55 PM 40.0925 -75.8342 103° East 314 361 8,300 -793 Descending New York Center
Sat 04:47:56 PM 40.0822 -75.7331 98° East 294 338 8,000 -151 Descending New York Center
Sat 04:48:54 PM 40.1203 -75.6650 54° Northeast 235 270 8,000 -305 Level New York Center
Sat 04:49:54 PM 40.1533 -75.5722 65° Northeast 247 284 7,400 -843 Descending New York Center
Sat 04:50:55 PM 40.1653 -75.4861 80° East 258 297 6,300 -694 Descending New York Center
Sat 04:51:55 PM 40.1797 -75.3839 79° East 258 297 6,000 -151 Descending New York Center
Sat 04:52:54 PM 40.1808 -75.2972 89° East 258 297 6,000  Level New York Center
Sat 04:53:52 PM 40.1167 -75.2500 151° Southeast 224 258 6,000  Level Philadelphia TRACON
Sat 04:54:58 PM 40.0667 -75.2000 143° Southeast 228 262 6,000  Level Philadelphia TRACON
Sat 04:55:58 PM 40.0000 -75.1833 169° South 216 249 6,000  Level Philadelphia TRACON
Sat 04:56:58 PM 39.9833 -75.1167 108° East 242 278 6,000 -350 Level Philadelphia TRACON
Sat 04:57:58 PM 40.0000 -75.0333 75° East 237 273 5,300 -850 Descending Philadelphia TRACON
Sat 04:58:58 PM 40.0000 -74.9667 90° East 225 259 4,300 -1,050 Descending Philadelphia TRACON
Sat 04:59:58 PM 39.9500 -75.0000 207° Southwest 187 215 3,200 -1,100 Descending Philadelphia TRACON
Sat 05:00:58 PM 39.9167 -75.0500 229° Southwest 187 215 2,100 -1,100 Descending Philadelphia TRACON

Login

Don't have an account? Register now (free) for customized features, flight alerts, and more!